Time;durP1;ratioP1;P1;durP2;ratioP2;P2;SDS_P1;SDS_P2;PMS_P1;PMS_P2;Temp;Humidity;BMP_temperature;BMP_pressure;BME280_temperature;BME280_humidity;BME280_pressure;Samples;Min_cycle;Max_cycle;Signal;HPM_P1;HPM_P2
2023/07/05 00:00:32;;;;;;;11.23;5.80;;;18.40;90.10;;;;;;5099017;28;20042;-75
2023/07/05 00:02:58;;;;;;;8.32;4.88;;;18.30;90.30;;;;;;5115926;28;20109;-76
2023/07/05 00:05:24;;;;;;;7.53;4.43;;;18.30;90.80;;;;;;5116785;28;20022;-76
2023/07/05 00:07:50;;;;;;;9.40;5.00;;;18.20;90.70;;;;;;5116706;28;20043;-76
2023/07/05 00:10:16;;;;;;;8.15;4.70;;;18.30;90.80;;;;;;5098689;28;20092;-76
2023/07/05 00:12:42;;;;;;;6.60;4.03;;;18.30;90.80;;;;;;5115770;28;20060;-76
2023/07/05 00:15:08;;;;;;;7.72;4.57;;;18.30;91.00;;;;;;5116592;28;20027;-76
2023/07/05 00:17:35;;;;;;;8.07;4.30;;;18.30;91.00;;;;;;5098685;28;20028;-76
2023/07/05 00:20:01;;;;;;;6.97;3.60;;;18.20;91.40;;;;;;5115451;28;20033;-76
2023/07/05 00:22:27;;;;;;;6.28;3.75;;;18.20;91.40;;;;;;5115448;28;20061;-76
2023/07/05 00:24:56;;;;;;;7.25;4.43;;;18.20;91.50;;;;;;5115316;28;20040;-76
2023/07/05 00:27:22;;;;;;;6.25;3.00;;;18.20;91.50;;;;;;5115632;28;20101;-76
2023/07/05 00:29:53;;;;;;;6.03;3.10;;;18.20;91.70;;;;;;5115325;28;20028;-76
2023/07/05 00:32:19;;;;;;;6.03;3.17;;;18.10;91.80;;;;;;5115330;28;20080;-76
2023/07/05 00:34:45;;;;;;;5.88;2.60;;;18.10;91.90;;;;;;5115980;28;20036;-75
2023/07/05 00:37:10;;;;;;;6.07;3.05;;;18.10;92.00;;;;;;5098128;28;20028;-75
2023/07/05 00:39:36;;;;;;;4.30;2.75;;;18.10;92.00;;;;;;5116138;28;20028;-76
2023/07/05 00:42:03;;;;;;;5.95;2.83;;;18.10;92.10;;;;;;5098218;28;20036;-76
2023/07/05 00:44:28;;;;;;;5.93;2.90;;;18.00;92.40;;;;;;5114971;28;20024;-76
2023/07/05 00:47:03;;;;;;;5.88;2.72;;;18.00;92.60;;;;;;5098179;28;20047;-76
2023/07/05 00:49:32;;;;;;;5.55;3.13;;;18.00;92.70;;;;;;5115932;28;20103;-76
2023/07/05 00:52:01;;;;;;;7.85;3.25;;;18.00;92.70;;;;;;5114865;28;20020;-76
2023/07/05 00:54:39;;;;;;;5.68;2.88;;;18.00;92.80;;;;;;5114850;28;20024;-76
2023/07/05 00:57:27;;;;;;;5.00;2.50;;;17.90;92.90;;;;;;5114863;28;20041;-76
2023/07/05 00:59:57;;;;;;;5.22;3.20;;;17.90;93.00;;;;;;5115814;28;20054;-76
2023/07/05 01:02:23;;;;;;;5.68;2.78;;;17.90;93.10;;;;;;5115688;28;20044;-76
2023/07/05 01:04:49;;;;;;;7.57;3.22;;;17.90;93.00;;;;;;5114803;28;20114;-76
2023/07/05 01:07:15;;;;;;;7.30;3.60;;;17.90;93.20;;;;;;5097838;28;20032;-76
2023/07/05 01:09:41;;;;;;;7.63;3.53;;;17.90;93.20;;;;;;5097666;28;20521;-76
2023/07/05 01:12:13;;;;;;;5.13;3.42;;;17.90;93.10;;;;;;5114480;28;20016;-77
2023/07/05 01:14:47;;;;;;;6.93;3.10;;;17.90;93.30;;;;;;5114494;28;20024;-76
2023/07/05 01:17:16;;;;;;;6.65;3.03;;;17.80;93.40;;;;;;5115462;28;20031;-76
2023/07/05 01:20:02;;;;;;;5.43;3.28;;;17.70;93.50;;;;;;5114279;28;20055;-76
2023/07/05 01:22:50;;;;;;;6.22;3.30;;;17.80;93.50;;;;;;5114340;28;20119;-76
2023/07/05 01:25:31;;;;;;;6.43;3.60;;;17.70;93.40;;;;;;5115507;28;20027;-76
2023/07/05 01:28:13;;;;;;;6.22;3.50;;;17.80;93.50;;;;;;5115300;28;20027;-76
2023/07/05 01:31:03;;;;;;;5.32;3.20;;;17.80;93.50;;;;;;5114133;28;20021;-76
2023/07/05 01:33:33;;;;;;;6.18;3.50;;;17.70;93.70;;;;;;5114060;28;20030;-77
2023/07/05 01:35:58;;;;;;;5.75;3.15;;;17.60;94.10;;;;;;5113914;28;20042;-76
2023/07/05 01:38:24;;;;;;;6.93;3.75;;;17.60;94.40;;;;;;5114007;28;20024;-76
2023/07/05 01:40:52;;;;;;;6.13;2.97;;;17.70;94.00;;;;;;5097011;28;20506;-76
2023/07/05 01:43:18;;;;;;;6.35;3.38;;;17.70;94.00;;;;;;5114886;28;20027;-76
2023/07/05 01:46:00;;;;;;;10.88;4.00;;;17.70;94.00;;;;;;5096825;28;20119;-76
2023/07/05 01:48:42;;;;;;;7.65;3.80;;;17.70;94.20;;;;;;5114265;28;20028;-76
2023/07/05 01:51:16;;;;;;;6.43;2.78;;;17.70;94.30;;;;;;5113686;28;20024;-76
2023/07/05 01:53:52;;;;;;;4.53;2.72;;;17.70;94.40;;;;;;5114849;28;20070;-77
2023/07/05 01:56:24;;;;;;;3.70;2.65;;;17.70;94.40;;;;;;5113663;28;20024;-76
2023/07/05 01:58:52;;;;;;;4.78;2.85;;;17.70;94.30;;;;;;5113658;28;20054;-77
2023/07/05 02:01:21;;;;;;;4.88;2.53;;;17.80;94.30;;;;;;5114445;28;20054;-77
2023/07/05 02:03:49;;;;;;;5.18;2.33;;;17.70;94.40;;;;;;5114456;28;20024;-77
2023/07/05 02:06:17;;;;;;;5.18;2.50;;;17.70;94.50;;;;;;5114409;28;20093;-77
2023/07/05 02:08:49;;;;;;;4.70;2.30;;;17.70;94.50;;;;;;5113275;28;20024;-77
2023/07/05 02:11:15;;;;;;;8.43;2.37;;;17.70;94.40;;;;;;5113402;28;20041;-77
2023/07/05 02:13:41;;;;;;;3.90;2.47;;;17.80;94.30;;;;;;5113164;28;20016;-77
2023/07/05 02:16:07;;;;;;;4.10;2.00;;;17.80;94.20;;;;;;5113228;28;20056;-77
2023/07/05 02:18:32;;;;;;;4.07;2.35;;;17.70;94.20;;;;;;5113090;28;20040;-77
2023/07/05 02:20:58;;;;;;;3.80;2.00;;;17.80;94.10;;;;;;5096209;28;20035;-77
2023/07/05 02:23:24;;;;;;;3.35;2.15;;;17.80;94.20;;;;;;5096168;28;20032;-77
2023/07/05 02:25:57;;;;;;;3.70;2.22;;;17.80;94.00;;;;;;5114072;28;20043;-77
2023/07/05 02:28:23;;;;;;;5.38;2.60;;;17.80;93.90;;;;;;5096772;28;20036;-77
2023/07/05 02:30:49;;;;;;;3.42;2.20;;;17.70;94.00;;;;;;5112949;28;20086;-77
2023/07/05 02:33:14;;;;;;;5.88;2.00;;;17.70;93.90;;;;;;5096075;28;20095;-77
2023/07/05 02:35:40;;;;;;;3.45;1.77;;;17.60;93.50;;;;;;5113581;28;20123;-77
2023/07/05 02:38:06;;;;;;;3.22;1.88;;;17.60;93.40;;;;;;5095940;28;20099;-77
2023/07/05 02:40:32;;;;;;;3.72;1.80;;;17.50;92.90;;;;;;5095982;28;20208;-77
2023/07/05 02:42:59;;;;;;;4.75;1.55;;;17.40;92.70;;;;;;5112856;28;20012;-77
2023/07/05 02:45:26;;;;;;;3.45;1.60;;;17.30;91.40;;;;;;5112884;28;20043;-76
2023/07/05 02:47:52;;;;;;;4.57;1.45;;;17.10;90.90;;;;;;5112683;28;20016;-77
2023/07/05 02:50:17;;;;;;;2.55;1.23;;;17.10;90.00;;;;;;5112658;28;20032;-77
2023/07/05 02:52:44;;;;;;;2.30;1.30;;;17.00;89.90;;;;;;5095662;28;20024;-76
2023/07/05 02:55:10;;;;;;;3.35;1.38;;;16.90;89.40;;;;;;5112777;28;20029;-77
2023/07/05 02:57:35;;;;;;;3.63;1.70;;;16.80;90.00;;;;;;5095705;28;20546;-77
2023/07/05 03:00:03;;;;;;;2.72;1.38;;;16.80;89.50;;;;;;5094841;28;20391;-76
2023/07/05 03:02:28;;;;;;;2.88;1.50;;;16.70;88.60;;;;;;5113542;28;20031;-77
2023/07/05 03:04:54;;;;;;;3.72;1.80;;;16.60;89.20;;;;;;5095580;28;20032;-77
2023/07/05 03:07:19;;;;;;;3.40;1.52;;;16.60;89.80;;;;;;5112691;28;20024;-77
2023/07/05 03:09:48;;;;;;;3.90;1.85;;;16.50;89.20;;;;;;5112388;28;20090;-77
2023/07/05 03:12:15;;;;;;;3.90;1.30;;;16.40;88.40;;;;;;5112525;28;20027;-77
2023/07/05 03:14:40;;;;;;;4.60;2.05;;;16.30;87.80;;;;;;5112481;28;20084;-77
2023/07/05 03:17:06;;;;;;;2.92;1.60;;;16.20;88.10;;;;;;5112315;28;20475;-76
2023/07/05 03:19:32;;;;;;;3.45;1.52;;;16.20;88.50;;;;;;5112464;28;20036;-77
2023/07/05 03:21:57;;;;;;;3.53;1.92;;;16.10;88.50;;;;;;5113379;28;20048;-77
2023/07/05 03:24:23;;;;;;;4.72;2.10;;;16.10;88.50;;;;;;5095523;28;20066;-77
2023/07/05 03:26:52;;;;;;;3.50;1.85;;;16.10;88.80;;;;;;5112397;28;20054;-77
2023/07/05 03:29:17;;;;;;;3.28;1.95;;;16.10;89.00;;;;;;5112294;28;20035;-77
2023/07/05 03:31:43;;;;;;;4.05;1.98;;;16.10;88.90;;;;;;5112348;28;20016;-77
2023/07/05 03:34:09;;;;;;;3.58;1.80;;;16.00;89.00;;;;;;5095417;28;20487;-77
2023/07/05 03:36:35;;;;;;;3.10;2.05;;;16.00;89.00;;;;;;5112092;28;20052;-76
2023/07/05 03:39:01;;;;;;;3.45;1.80;;;15.90;90.00;;;;;;5112197;28;20111;-77
2023/07/05 03:41:27;;;;;;;5.28;2.13;;;15.90;89.10;;;;;;5112236;28;20021;-77
2023/07/05 03:44:01;;;;;;;5.45;2.10;;;15.90;89.30;;;;;;5095317;28;20028;-77
2023/07/05 03:46:28;;;;;;;5.03;2.10;;;15.80;89.20;;;;;;5112138;28;20483;-77
2023/07/05 03:48:53;;;;;;;6.30;2.47;;;15.90;88.70;;;;;;5112997;28;20039;-76
2023/07/05 03:51:22;;;;;;;4.97;2.88;;;15.80;88.90;;;;;;5112132;28;20080;-77
2023/07/05 03:53:53;;;;;;;4.70;2.25;;;15.80;89.00;;;;;;5111990;28;20021;-76
2023/07/05 03:56:19;;;;;;;4.20;2.47;;;15.80;88.60;;;;;;5112226;28;20016;-77
2023/07/05 03:58:44;;;;;;;5.22;2.60;;;15.90;89.20;;;;;;5111927;28;20493;-77
2023/07/05 04:01:19;;;;;;;6.10;2.40;;;15.90;89.30;;;;;;5095171;28;20039;-77
2023/07/05 04:03:46;;;;;;;5.40;2.65;;;15.80;88.80;;;;;;5111982;28;20024;-77
2023/07/05 04:06:12;;;;;;;6.88;2.70;;;15.80;88.50;;;;;;5112907;28;20036;-77
2023/07/05 04:08:39;;;;;;;5.68;2.30;;;15.80;88.50;;;;;;5112830;28;20035;-77
2023/07/05 04:11:06;;;;;;;4.32;2.33;;;15.70;88.40;;;;;;5113741;28;20028;-77
2023/07/05 04:13:32;;;;;;;2.95;1.65;;;15.70;88.60;;;;;;5116795;28;20028;-77
2023/07/05 04:15:58;;;;;;;9.07;2.70;;;15.60;88.50;;;;;;5115694;28;20035;-77
2023/07/05 04:18:25;;;;;;;5.38;3.05;;;15.70;88.90;;;;;;5116586;28;20024;-76
2023/07/05 04:20:50;;;;;;;5.13;2.22;;;15.70;88.70;;;;;;5098498;28;20100;-77
2023/07/05 04:23:16;;;;;;;4.68;2.70;;;15.70;89.20;;;;;;5115571;28;20031;-77
2023/07/05 04:25:41;;;;;;;6.10;2.45;;;15.70;89.60;;;;;;5115587;28;20177;-77
2023/07/05 04:28:07;;;;;;;5.10;2.40;;;15.70;89.10;;;;;;5098292;28;20467;-77
2023/07/05 04:30:32;;;;;;;5.68;2.65;;;15.70;88.80;;;;;;5115239;28;20064;-77
2023/07/05 04:32:58;;;;;;;4.82;2.38;;;15.70;88.90;;;;;;5115372;28;20035;-77
2023/07/05 04:35:24;;;;;;;7.57;3.20;;;15.80;88.80;;;;;;5114972;28;20047;-76
2023/07/05 04:37:49;;;;;;;6.15;2.78;;;15.80;88.60;;;;;;5098277;28;20050;-76
2023/07/05 04:40:15;;;;;;;5.00;2.30;;;15.80;89.00;;;;;;5115172;28;20028;-77
2023/07/05 04:42:40;;;;;;;4.30;2.28;;;15.80;88.50;;;;;;5115185;28;20048;-76
2023/07/05 04:45:07;;;;;;;4.28;2.17;;;15.80;88.50;;;;;;5098057;28;20043;-77
2023/07/05 04:47:33;;;;;;;4.90;2.65;;;15.80;88.90;;;;;;5115104;28;20036;-76
2023/07/05 04:49:58;;;;;;;5.40;2.65;;;15.80;88.50;;;;;;5097983;28;20062;-76
2023/07/05 04:52:24;;;;;;;5.07;2.60;;;15.80;88.90;;;;;;5114948;28;20028;-77
2023/07/05 04:54:49;;;;;;;7.07;3.08;;;15.80;88.00;;;;;;5114902;28;20058;-77
2023/07/05 04:57:15;;;;;;;5.30;2.20;;;15.80;88.50;;;;;;5114821;28;20352;-76
2023/07/05 04:59:43;;;;;;;4.95;2.13;;;15.80;88.30;;;;;;5115758;28;20050;-77
2023/07/05 05:02:10;;;;;;;5.78;2.60;;;15.70;87.60;;;;;;5115729;28;20073;-78
2023/07/05 05:04:35;;;;;;;4.28;2.28;;;15.70;88.40;;;;;;5115661;28;20475;-77
2023/07/05 05:07:01;;;;;;;5.80;2.75;;;15.70;88.20;;;;;;5097699;28;20088;-77
2023/07/05 05:09:27;;;;;;;5.35;2.08;;;15.70;87.80;;;;;;5114616;28;20061;-77
2023/07/05 05:11:52;;;;;;;5.68;2.90;;;15.80;87.50;;;;;;5114467;28;20032;-76
2023/07/05 05:14:18;;;;;;;7.88;2.92;;;15.70;87.70;;;;;;5114423;28;20028;-77
2023/07/05 05:16:43;;;;;;;5.07;2.30;;;15.80;88.10;;;;;;5115442;28;20028;-77
2023/07/05 05:19:09;;;;;;;8.15;3.15;;;15.70;87.50;;;;;;5114379;28;20020;-77
2023/07/05 05:21:34;;;;;;;6.68;2.45;;;15.80;87.30;;;;;;5114311;28;20036;-76
2023/07/05 05:24:00;;;;;;;6.20;2.45;;;15.80;86.50;;;;;;5096294;28;20032;-78
2023/07/05 05:26:26;;;;;;;4.32;2.20;;;15.80;86.70;;;;;;5097341;28;20032;-77
2023/07/05 05:28:51;;;;;;;4.50;2.15;;;15.70;87.10;;;;;;5114265;28;20028;-78
2023/07/05 05:31:17;;;;;;;6.80;2.65;;;15.70;87.20;;;;;;5097279;28;20025;-77
2023/07/05 05:33:42;;;;;;;5.20;2.67;;;15.70;87.30;;;;;;5114045;28;20023;-77
2023/07/05 05:36:08;;;;;;;5.03;2.47;;;15.70;86.70;;;;;;5096928;28;20040;-77
2023/07/05 05:38:35;;;;;;;7.72;2.40;;;15.70;86.90;;;;;;5097073;28;20085;-78
2023/07/05 05:41:10;;;;;;;9.48;3.65;;;15.70;86.90;;;;;;5097097;28;20028;-78
2023/07/05 05:43:39;;;;;;;5.30;2.30;;;15.70;86.80;;;;;;5114005;28;20035;-78
2023/07/05 05:46:04;;;;;;;5.88;2.35;;;15.70;85.40;;;;;;5113768;28;20035;-77
2023/07/05 05:48:30;;;;;;;5.03;2.42;;;15.70;84.90;;;;;;5113677;28;20032;-77
2023/07/05 05:50:56;;;;;;;6.13;2.50;;;15.70;86.10;;;;;;5113696;28;20028;-77
2023/07/05 05:53:22;;;;;;;7.03;2.47;;;15.60;85.50;;;;;;5113879;28;20088;-77
2023/07/05 05:55:48;;;;;;;7.03;2.15;;;15.70;85.40;;;;;;5114779;28;20020;-77
2023/07/05 05:58:13;;;;;;;3.85;2.20;;;15.70;84.80;;;;;;5113561;28;20078;-77
2023/07/05 06:00:39;;;;;;;4.32;2.35;;;15.70;84.60;;;;;;5113659;28;20074;-77
2023/07/05 06:03:05;;;;;;;4.30;2.30;;;15.60;84.60;;;;;;5113666;28;20502;-77
2023/07/05 06:05:34;;;;;;;4.35;2.10;;;15.60;85.20;;;;;;5096585;28;20032;-77
2023/07/05 06:08:00;;;;;;;4.72;2.33;;;15.60;84.90;;;;;;5114415;28;20016;-78
2023/07/05 06:10:25;;;;;;;5.47;2.03;;;15.60;84.80;;;;;;5113247;28;20067;-77
2023/07/05 06:12:51;;;;;;;3.92;1.65;;;15.60;84.60;;;;;;5113496;28;20092;-77
2023/07/05 06:15:17;;;;;;;7.63;2.25;;;15.50;84.40;;;;;;5114422;28;20076;-77
2023/07/05 06:17:43;;;;;;;4.68;2.38;;;15.60;85.10;;;;;;5114266;28;20020;-76
2023/07/05 06:20:10;;;;;;;5.00;2.30;;;15.50;85.20;;;;;;5114218;28;20111;-78
2023/07/05 06:22:37;;;;;;;4.40;1.95;;;15.60;85.00;;;;;;5113110;28;20024;-77
2023/07/05 06:25:03;;;;;;;3.55;2.10;;;15.50;84.90;;;;;;5114115;28;20034;-77
2023/07/05 06:27:29;;;;;;;4.93;2.50;;;15.50;85.30;;;;;;5113135;28;20486;-76
2023/07/05 06:29:55;;;;;;;6.97;2.30;;;15.60;84.80;;;;;;5096141;28;20028;-77
2023/07/05 06:32:21;;;;;;;5.45;2.30;;;15.60;85.40;;;;;;5096188;28;20532;-77
2023/07/05 06:34:47;;;;;;;3.42;1.77;;;15.60;85.30;;;;;;5112547;28;20040;-77
2023/07/05 06:37:12;;;;;;;5.22;2.10;;;15.60;84.80;;;;;;5113915;28;20028;-77
2023/07/05 06:39:41;;;;;;;2.30;1.80;;;15.50;85.30;;;;;;5113867;28;20487;-76
2023/07/05 06:42:08;;;;;;;4.68;2.22;;;15.50;86.40;;;;;;5113793;28;20029;-77
2023/07/05 06:44:37;;;;;;;4.47;2.15;;;15.50;85.90;;;;;;5112908;28;20032;-76
2023/07/05 06:47:03;;;;;;;3.90;2.05;;;15.50;85.60;;;;;;5112744;28;20043;-77
2023/07/05 06:49:30;;;;;;;3.58;1.77;;;15.50;85.80;;;;;;5095696;28;20039;-77
2023/07/05 06:51:56;;;;;;;5.70;2.70;;;15.60;84.70;;;;;;5112783;28;20083;-77
2023/07/05 06:54:21;;;;;;;3.85;2.08;;;15.60;85.90;;;;;;5095762;28;20024;-78
2023/07/05 06:56:47;;;;;;;3.83;2.13;;;15.70;86.10;;;;;;5113616;28;20027;-77
2023/07/05 06:59:12;;;;;;;3.13;1.60;;;15.80;84.80;;;;;;5112781;28;20028;-77
2023/07/05 07:01:39;;;;;;;6.10;2.00;;;15.90;85.50;;;;;;5113517;28;20087;-77
2023/07/05 07:04:05;;;;;;;3.72;1.73;;;15.90;82.30;;;;;;5112662;28;20028;-77
2023/07/05 07:06:31;;;;;;;6.88;2.30;;;15.90;82.40;;;;;;5112517;28;20479;-76
2023/07/05 07:08:58;;;;;;;4.15;2.25;;;16.00;82.20;;;;;;5112443;28;20036;-77
2023/07/05 07:11:24;;;;;;;4.95;1.90;;;16.00;82.40;;;;;;5112574;28;20024;-76
2023/07/05 07:13:50;;;;;;;23.85;2.20;;;16.10;82.40;;;;;;5113411;28;20027;-76
2023/07/05 07:16:17;;;;;;;6.72;2.03;;;16.20;81.70;;;;;;5112404;28;20016;-76
2023/07/05 07:18:47;;;;;;;3.25;1.75;;;16.20;80.60;;;;;;5113497;28;20114;-76
2023/07/05 07:21:13;;;;;;;4.07;2.00;;;16.30;80.40;;;;;;5113295;28;20028;-75
2023/07/05 07:23:40;;;;;;;5.35;2.08;;;16.30;80.50;;;;;;5113281;28;20028;-76
2023/07/05 07:26:08;;;;;;;7.50;2.22;;;16.30;80.40;;;;;;5113433;28;20032;-77
2023/07/05 07:28:35;;;;;;;7.80;2.35;;;16.40;80.80;;;;;;5112134;28;20024;-76
2023/07/05 07:31:13;;;;;;;17.17;3.03;;;16.50;80.90;;;;;;5112281;28;20027;-76
2023/07/05 07:33:45;;;;;;;8.75;2.45;;;16.50;80.10;;;;;;5112388;28;20024;-75
2023/07/05 07:36:12;;;;;;;;;;;16.50;80.00;;;;;;5112504;28;20052;-75
2023/07/05 07:38:39;;;;;;;3.63;2.05;;;16.40;79.20;;;;;;5113351;28;19963;-76
2023/07/05 07:41:15;;;;;;;5.38;2.03;;;16.30;79.30;;;;;;5112173;28;20024;-75
2023/07/05 07:43:41;;;;;;;3.50;1.60;;;16.30;80.10;;;;;;5113140;28;20047;-74
2023/07/05 07:46:09;;;;;;;3.58;1.67;;;16.30;78.90;;;;;;5113001;28;20539;-74
2023/07/05 07:48:34;;;;;;;3.40;1.85;;;16.40;79.90;;;;;;5116989;28;20079;-73
2023/07/05 07:51:00;;;;;;;1.67;1.27;;;16.30;79.20;;;;;;5115950;28;20491;-74
2023/07/05 07:53:26;;;;;;;4.72;1.70;;;16.20;79.20;;;;;;5099129;28;20023;-74
2023/07/05 07:55:51;;;;;;;4.22;1.80;;;16.10;80.30;;;;;;5116944;28;20035;-76
2023/07/05 07:58:17;;;;;;;5.88;3.00;;;16.00;81.50;;;;;;5115961;28;20036;-74
2023/07/05 08:00:56;;;;;;;5.50;2.20;;;15.90;82.20;;;;;;5115989;28;20039;-75
2023/07/05 08:03:26;;;;;;;3.88;2.28;;;15.80;82.90;;;;;;5117023;28;20052;-75
2023/07/05 08:05:56;;;;;;;6.80;2.30;;;15.80;84.00;;;;;;5116886;28;20028;-76
2023/07/05 08:08:26;;;;;;;5.70;2.10;;;15.80;85.30;;;;;;5116175;28;20021;-76
2023/07/05 08:10:52;;;;;;;3.25;2.13;;;15.80;84.70;;;;;;5116597;28;20024;-75
2023/07/05 08:13:18;;;;;;;4.25;2.47;;;15.80;85.40;;;;;;5115538;28;20090;-75
2023/07/05 08:15:43;;;;;;;3.92;2.10;;;15.70;85.30;;;;;;5115453;28;20027;-75
2023/07/05 08:18:09;;;;;;;6.65;2.78;;;15.60;85.40;;;;;;5115628;28;20019;-77
2023/07/05 08:20:34;;;;;;;6.45;2.97;;;15.70;85.40;;;;;;5098558;28;20143;-74
2023/07/05 08:23:00;;;;;;;5.35;2.40;;;15.60;86.00;;;;;;5115554;28;20020;-73
2023/07/05 08:25:26;;;;;;;6.90;2.92;;;15.70;86.10;;;;;;5116435;28;20452;-73
2023/07/05 08:27:51;;;;;;;3.92;2.50;;;15.70;86.20;;;;;;5115326;28;20031;-75
2023/07/05 08:30:17;;;;;;;3.20;2.45;;;15.70;85.90;;;;;;5115137;28;20028;-74
2023/07/05 08:32:43;;;;;;;5.55;2.67;;;15.80;85.90;;;;;;5098352;28;20024;-74
2023/07/05 08:35:08;;;;;;;4.28;2.45;;;15.80;85.70;;;;;;5115964;28;20123;-74
2023/07/05 08:37:34;;;;;;;5.80;2.35;;;15.80;86.40;;;;;;5115216;28;20052;-74
2023/07/05 08:39:59;;;;;;;5.45;2.90;;;15.80;86.00;;;;;;5115086;28;20028;-75
2023/07/05 08:42:37;;;;;;;6.85;2.55;;;15.80;86.00;;;;;;5115005;28;20402;-75
2023/07/05 08:45:17;;;;;;;3.28;2.50;;;15.90;85.10;;;;;;5116039;28;20082;-76
2023/07/05 08:47:49;;;;;;;5.13;3.03;;;16.00;85.50;;;;;;5115050;28;20032;-75
2023/07/05 08:50:31;;;;;;;6.40;2.63;;;16.10;85.90;;;;;;5115875;28;20091;-75
2023/07/05 08:53:19;;;;;;;4.50;2.58;;;16.10;85.30;;;;;;5115905;28;20053;-76
2023/07/05 08:56:21;;;;;;;6.72;4.40;;;16.20;84.50;;;;;;5115908;28;20020;-74
2023/07/05 08:59:05;;;;;;;6.05;3.17;;;16.30;83.90;;;;;;5084905;28;20039;-74
2023/07/05 09:01:36;;;;;;;5.85;3.50;;;16.40;84.40;;;;;;5115711;28;20024;-75
2023/07/05 09:04:01;;;;;;;6.78;3.22;;;16.50;83.50;;;;;;5114158;28;20023;-74
2023/07/05 09:06:42;;;;;;;5.85;3.80;;;16.50;84.30;;;;;;5112965;28;20032;-75
2023/07/05 09:09:31;;;;;;;4.82;2.85;;;16.50;83.90;;;;;;5114786;28;20029;-75
2023/07/05 09:12:03;;;;;;;7.07;3.25;;;16.50;84.20;;;;;;5114865;28;20024;-74
2023/07/05 09:14:32;;;;;;;10.23;3.53;;;16.50;82.90;;;;;;5114725;28;20020;-74
2023/07/05 09:17:23;;;;;;;6.00;3.33;;;16.60;82.70;;;;;;5113925;28;20021;-74
2023/07/05 09:19:56;;;;;;;7.90;3.05;;;16.70;83.00;;;;;;5115387;28;20031;-74
2023/07/05 09:22:24;;;;;;;;;;;16.90;81.90;;;;;;5114706;28;20095;-75
2023/07/05 09:24:52;;;;;;;7.55;2.90;;;17.00;82.20;;;;;;5115277;28;19997;-75
2023/07/05 09:27:30;;;;;;;8.93;3.92;;;17.00;81.60;;;;;;5114211;28;20034;-74
2023/07/05 09:30:13;;;;;;;8.30;3.55;;;17.10;81.10;;;;;;5114102;28;20028;-74
2023/07/05 09:32:41;;;;;;;6.15;3.00;;;17.20;81.20;;;;;;5115121;28;20016;-74
2023/07/05 09:35:15;;;;;;;5.45;3.53;;;17.30;79.90;;;;;;5113815;28;20071;-75
2023/07/05 09:38:04;;;;;;;4.85;2.70;;;17.40;78.70;;;;;;5113973;28;20047;-74
2023/07/05 09:40:42;;;;;;;8.27;2.75;;;17.40;78.90;;;;;;5100373;28;20036;-74
2023/07/05 09:43:15;;;;;;;5.40;2.40;;;17.30;78.10;;;;;;5114932;28;20024;-74
2023/07/05 09:45:41;;;;;;;4.30;2.97;;;17.30;78.20;;;;;;5113937;28;20017;-74
2023/07/05 09:48:11;;;;;;;4.43;2.60;;;17.30;78.60;;;;;;5114842;28;20087;-73
2023/07/05 09:50:52;;;;;;;5.78;2.30;;;17.40;77.90;;;;;;5114002;28;20500;-74
2023/07/05 09:54:08;;;;;;;4.57;2.20;;;17.30;78.10;;;;;;5113874;28;20020;-75
2023/07/05 09:56:59;;;;;;;7.88;2.42;;;17.30;78.40;;;;;;5109171;28;20036;-75
2023/07/05 09:59:25;;;;;;;6.18;2.40;;;17.30;77.50;;;;;;5103991;28;20043;-75
2023/07/05 10:02:00;;;;;;;6.68;2.50;;;17.40;78.40;;;;;;5113504;28;20032;-74
2023/07/05 10:04:27;;;;;;;4.80;1.98;;;17.50;77.30;;;;;;5113421;28;20024;-75
2023/07/05 10:07:02;;;;;;;5.07;2.38;;;17.50;76.00;;;;;;5113375;28;20031;-76
2023/07/05 10:09:28;;;;;;;5.40;2.63;;;17.50;77.00;;;;;;5113972;28;20028;-75
2023/07/05 10:11:59;;;;;;;7.68;2.38;;;17.50;78.30;;;;;;5113421;28;20021;-75
2023/07/05 10:14:33;;;;;;;4.65;2.17;;;17.60;77.50;;;;;;5113319;28;20107;-75
2023/07/05 10:17:05;;;;;;;5.18;1.90;;;17.70;76.00;;;;;;5113344;28;20034;-74
2023/07/05 10:19:39;;;;;;;5.65;1.60;;;17.90;76.20;;;;;;5114227;28;20091;-75
2023/07/05 10:22:06;;;;;;;4.15;1.70;;;18.10;74.00;;;;;;5114232;28;20020;-76
2023/07/05 10:24:47;;;;;;;3.60;1.33;;;18.40;72.90;;;;;;5114145;28;20087;-75
2023/07/05 10:27:31;;;;;;;4.40;1.40;;;18.40;68.80;;;;;;5113021;28;20415;-75
2023/07/05 10:30:03;;;;;;;5.35;1.50;;;18.40;68.80;;;;;;5113998;28;20024;-76
2023/07/05 10:32:30;;;;;;;3.13;1.30;;;18.60;67.70;;;;;;5113039;28;20027;-75
2023/07/05 10:34:57;;;;;;;4.45;1.40;;;18.70;69.50;;;;;;5112605;28;20047;-75
2023/07/05 10:37:30;;;;;;;2.42;1.05;;;18.70;69.10;;;;;;5113018;28;20079;-75
2023/07/05 10:39:56;;;;;;;2.40;1.05;;;18.90;69.20;;;;;;5113966;28;20042;-77
2023/07/05 10:42:24;;;;;;;2.40;1.17;;;19.00;68.10;;;;;;5112934;28;20024;-77
2023/07/05 10:44:50;;;;;;;3.10;1.20;;;19.00;66.80;;;;;;5112791;28;20035;-76
2023/07/05 10:47:17;;;;;;;1.63;0.82;;;19.10;65.30;;;;;;5113884;28;20028;-76
2023/07/05 10:49:44;;;;;;;3.22;1.10;;;19.10;65.50;;;;;;5112561;28;20028;-75
2023/07/05 10:52:15;;;;;;;1.40;0.95;;;19.20;65.70;;;;;;5112775;28;20035;-76
2023/07/05 10:54:49;;;;;;;1.77;1.05;;;19.30;66.00;;;;;;5113702;28;20047;-75
2023/07/05 10:57:30;;;;;;;3.95;1.00;;;19.30;65.10;;;;;;5113668;28;20065;-76
2023/07/05 11:00:02;;;;;;;2.15;1.05;;;19.20;66.00;;;;;;5112623;28;20024;-76
2023/07/05 11:02:49;;;;;;;7.38;1.55;;;19.10;65.20;;;;;;5112515;28;20051;-77
2023/07/05 11:05:46;;;;;;;4.95;1.30;;;19.10;65.80;;;;;;5112514;28;20036;-76
2023/07/05 11:08:25;;;;;;;3.50;1.17;;;19.20;65.20;;;;;;5104558;28;20032;-76
2023/07/05 11:10:55;;;;;;;3.08;1.00;;;19.40;64.40;;;;;;5113556;28;20020;-77
2023/07/05 11:13:21;;;;;;;7.97;1.60;;;19.40;64.10;;;;;;5113513;28;20020;-76
2023/07/05 11:15:47;;;;;;;2.97;1.10;;;19.40;62.50;;;;;;5112529;28;20081;-75
2023/07/05 11:18:18;;;;;;;3.15;1.00;;;19.40;63.80;;;;;;5113447;28;20013;-76
2023/07/05 11:20:45;;;;;;;4.95;1.23;;;19.40;63.00;;;;;;5112748;28;20020;-76
2023/07/05 11:23:13;;;;;;;4.45;1.27;;;19.30;62.20;;;;;;5117602;28;20020;-76
2023/07/05 11:25:54;;;;;;;2.88;0.95;;;19.20;63.10;;;;;;5117566;28;20013;-75
2023/07/05 11:28:43;;;;;;;2.95;1.05;;;19.20;63.00;;;;;;5117472;28;20046;-75
2023/07/05 11:31:28;;;;;;;3.65;1.20;;;19.10;62.60;;;;;;5116550;28;20020;-76
2023/07/05 11:34:25;;;;;;;5.05;1.20;;;19.10;63.80;;;;;;5075987;28;20068;-76
2023/07/05 11:36:54;;;;;;;2.30;0.90;;;19.10;64.00;;;;;;5116216;28;20044;-76
2023/07/05 11:39:38;;;;;;;2.45;1.00;;;19.00;64.60;;;;;;5117358;28;20048;-77
2023/07/05 11:42:16;;;;;;;3.35;0.93;;;19.00;64.40;;;;;;5116304;28;20067;-75
2023/07/05 11:44:43;;;;;;;2.78;1.02;;;18.90;64.40;;;;;;5116184;28;20031;-75
2023/07/05 11:47:32;;;;;;;3.22;1.38;;;19.00;64.00;;;;;;5116139;28;20024;-76
2023/07/05 11:50:08;;;;;;;4.35;1.23;;;19.20;65.10;;;;;;5104362;28;20048;-76
2023/07/05 11:52:41;;;;;;;2.47;1.05;;;19.30;62.90;;;;;;5117155;28;20023;-76
2023/07/05 11:55:23;;;;;;;1.50;0.90;;;19.40;61.80;;;;;;5116124;28;20024;-75
2023/07/05 11:58:02;;;;;;;5.18;1.35;;;19.40;61.20;;;;;;5117061;28;20046;-75
2023/07/05 12:00:51;;;;;;;2.42;0.93;;;19.60;62.30;;;;;;5117020;28;20028;-75
2023/07/05 12:03:21;;;;;;;3.85;1.10;;;19.60;62.10;;;;;;5102463;28;20032;-75
2023/07/05 12:06:10;;;;;;;3.47;1.23;;;19.60;60.50;;;;;;5117024;28;20053;-76
2023/07/05 12:08:44;;;;;;;3.55;1.77;;;19.60;59.90;;;;;;5115708;28;20028;-76
2023/07/05 12:11:12;;;;;;;2.88;1.10;;;19.70;60.50;;;;;;5115776;28;20055;-76
2023/07/05 12:13:38;;;;;;;2.75;1.00;;;19.60;59.80;;;;;;5115800;28;20031;-75
2023/07/05 12:16:07;;;;;;;5.25;1.27;;;19.60;60.10;;;;;;5098693;28;20032;-77
2023/07/05 12:18:34;;;;;;;3.00;1.10;;;19.60;60.60;;;;;;5116625;28;20086;-77
2023/07/05 12:21:04;;;;;;;6.45;1.13;;;19.70;60.60;;;;;;5098734;28;20051;-77
2023/07/05 12:23:32;;;;;;;4.47;1.27;;;19.70;60.60;;;;;;5115520;28;20057;-76
2023/07/05 12:26:02;;;;;;;4.47;1.40;;;19.80;60.10;;;;;;5115502;28;20027;-77
2023/07/05 12:28:30;;;;;;;3.55;1.20;;;19.80;59.50;;;;;;5116369;28;20021;-76
2023/07/05 12:31:05;;;;;;;3.53;1.05;;;19.90;60.20;;;;;;5115426;28;20020;-76
2023/07/05 12:33:36;;;;;;;3.80;1.10;;;20.00;56.90;;;;;;5115816;28;20020;-76
2023/07/05 12:36:13;;;;;;;2.15;1.50;;;20.00;57.90;;;;;;5115224;28;20091;-76
2023/07/05 12:38:41;;;;;;;3.65;1.17;;;20.10;57.40;;;;;;5116254;28;20084;-76
2023/07/05 12:41:16;;;;;;;4.65;2.05;;;20.20;57.70;;;;;;5115140;28;20020;-77
2023/07/05 12:43:43;;;;;;;4.13;1.30;;;20.30;56.80;;;;;;5115197;28;20023;-77
2023/07/05 12:46:13;;;;;;;5.07;1.20;;;20.20;56.40;;;;;;5098328;28;20025;-77
2023/07/05 12:48:39;;;;;;;6.60;1.38;;;20.10;55.20;;;;;;5114879;28;20089;-77
2023/07/05 12:51:19;;;;;;;4.82;1.30;;;20.20;58.30;;;;;;5115201;28;20016;-78
2023/07/05 12:53:48;;;;;;;4.20;1.27;;;20.40;56.80;;;;;;5116006;28;20016;-78
2023/07/05 12:56:29;;;;;;;3.40;1.10;;;20.50;57.20;;;;;;5114981;28;20024;-77
2023/07/05 12:59:06;;;;;;;3.33;1.23;;;20.70;57.10;;;;;;5116072;28;20028;-77
2023/07/05 13:01:40;;;;;;;4.78;1.17;;;20.80;55.70;;;;;;5114832;28;20024;-77